Time;durP1;ratioP1;P1;durP2;ratioP2;P2;SDS_P1;SDS_P2;PMS_P1;PMS_P2;Temp;Humidity;BMP_temperature;BMP_pressure;BME280_temperature;BME280_humidity;BME280_pressure;Samples;Min_cycle;Max_cycle;Signal;HPM_P1;HPM_P2
2023/09/27 00:00:36;;;;;;;9.77;4.80;;;;;;;16.83;100.00;101886.28;5296466;28;20036;-68
2023/09/27 00:03:08;;;;;;;7.50;5.43;;;;;;;16.64;100.00;101891.06;5294429;28;20036;-68
2023/09/27 00:05:39;;;;;;;10.03;5.40;;;;;;;16.63;100.00;101902.63;5294502;28;20052;-68
2023/09/27 00:08:11;;;;;;;7.90;5.40;;;;;;;16.54;100.00;101900.59;5273420;28;20036;-68
2023/09/27 00:10:42;;;;;;;8.53;4.93;;;;;;;16.56;100.00;101906.63;5293129;28;20054;-68
2023/09/27 00:13:13;;;;;;;7.83;5.33;;;;;;;16.35;100.00;101901.00;5293211;28;20024;-68
2023/09/27 00:15:45;;;;;;;7.20;5.30;;;;;;;16.41;100.00;101896.16;5281799;28;20087;-68
2023/09/27 00:18:16;;;;;;;7.43;5.37;;;;;;;16.57;100.00;101903.03;5295720;28;20106;-67
2023/09/27 00:20:47;;;;;;;8.73;5.13;;;;;;;16.54;100.00;101901.44;5295385;28;20043;-69
2023/09/27 00:23:18;;;;;;;8.17;5.00;;;;;;;16.60;100.00;101905.44;5295230;28;20438;-68
2023/09/27 00:25:50;;;;;;;9.63;5.50;;;;;;;16.67;100.00;101909.38;5296048;28;20028;-67
2023/09/27 00:28:21;;;;;;;5.30;4.73;;;;;;;16.41;100.00;101903.22;5292190;28;20064;-67
2023/09/27 00:30:52;;;;;;;8.93;5.13;;;;;;;16.50;100.00;101892.03;5295068;28;20073;-67
2023/09/27 00:33:24;;;;;;;8.60;4.20;;;;;;;16.48;100.00;101901.84;5296165;28;20103;-67
2023/09/27 00:35:56;;;;;;;12.10;4.83;;;;;;;16.42;100.00;101903.13;5304783;28;20054;-67
2023/09/27 00:38:27;;;;;;;8.67;4.73;;;;;;;16.44;100.00;101898.56;5294956;28;20030;-67
2023/09/27 00:40:59;;;;;;;12.27;5.57;;;;;;;16.39;100.00;101898.03;5286450;28;20027;-66
2023/09/27 00:43:32;;;;;;;9.60;5.40;;;;;;;16.31;100.00;101898.56;5316264;28;20038;-67
2023/09/27 00:46:05;;;;;;;10.43;5.37;;;;;;;16.43;100.00;101894.25;5307805;28;20031;-67
2023/09/27 00:48:37;;;;;;;8.93;5.10;;;;;;;16.59;100.00;101893.19;5295178;28;20070;-67
2023/09/27 00:51:08;;;;;;;9.83;5.77;;;;;;;16.30;100.00;101898.69;5294990;28;20379;-66
2023/09/27 00:53:42;;;;;;;7.63;5.77;;;;;;;16.39;100.00;101897.22;5295908;28;20032;-67
2023/09/27 00:56:13;;;;;;;6.40;4.87;;;;;;;16.36;100.00;101882.41;5316041;28;20016;-67
2023/09/27 00:58:45;;;;;;;9.00;4.77;;;;;;;16.35;100.00;101891.28;5316629;28;20583;-67
2023/09/27 01:01:16;;;;;;;7.73;5.40;;;;;;;16.23;100.00;101892.13;5298222;28;20073;-67
2023/09/27 01:03:48;;;;;;;6.63;5.00;;;;;;;16.21;100.00;101876.38;5313921;28;20065;-68
2023/09/27 01:06:20;;;;;;;8.63;5.70;;;;;;;16.20;100.00;101886.06;5289651;28;20099;-68
2023/09/27 01:09:03;;;;;;;7.37;5.30;;;;;;;16.42;100.00;101875.84;5324143;22;20084;-78
2023/09/27 01:11:36;;;;;;;8.60;5.07;;;;;;;16.32;100.00;101888.81;5289899;28;20047;-78
2023/09/27 01:14:08;;;;;;;6.43;4.80;;;;;;;16.20;100.00;101875.50;5276198;28;20017;-79
2023/09/27 01:16:40;;;;;;;7.60;4.90;;;;;;;16.12;100.00;101863.75;5267155;28;20486;-80
2023/09/27 01:19:12;;;;;;;8.73;5.30;;;;;;;15.90;100.00;101844.88;5278564;28;20036;-79
2023/09/27 01:21:43;;;;;;;8.53;5.20;;;;;;;15.76;100.00;101835.22;5263775;28;20063;-80
2023/09/27 01:24:21;;;;;;;7.90;5.00;;;;;;;16.19;100.00;101865.03;5292142;28;20066;-80
2023/09/27 01:26:55;;;;;;;8.23;5.33;;;;;;;15.88;100.00;101824.81;5278770;28;20027;-79
2023/09/27 01:29:26;;;;;;;7.07;4.55;;;;;;;15.99;100.00;101827.59;5279390;28;20036;-80
2023/09/27 01:31:57;;;;;;;8.07;5.50;;;;;;;15.99;100.00;101838.16;5277113;28;20016;-80
2023/09/27 01:34:29;;;;;;;7.50;5.17;;;;;;;16.00;100.00;101823.16;5264992;28;20043;-80
2023/09/27 01:37:01;;;;;;;6.63;4.70;;;;;;;15.78;100.00;101849.19;5259115;28;20048;-80
2023/09/27 01:39:32;;;;;;;7.07;4.97;;;;;;;15.67;100.00;101818.22;5258059;28;20028;-80
2023/09/27 01:42:04;;;;;;;8.57;5.23;;;;;;;15.58;100.00;101810.91;5275798;28;20047;-79
2023/09/27 01:44:35;;;;;;;9.50;5.53;;;;;;;15.62;100.00;101809.75;5258045;28;20027;-78
2023/09/27 01:47:07;;;;;;;8.63;5.57;;;;;;;15.48;100.00;101813.31;5275564;28;20032;-81
2023/09/27 01:49:38;;;;;;;7.77;5.10;;;;;;;15.71;100.00;101861.09;5282048;28;20024;-79
2023/09/27 01:52:09;;;;;;;7.07;5.13;;;;;;;15.44;100.00;101820.56;5283349;28;20024;-81
2023/09/27 01:54:40;;;;;;;7.33;5.10;;;;;;;15.45;100.00;101830.19;5268741;28;20095;-80
2023/09/27 01:57:12;;;;;;;7.50;5.63;;;;;;;15.39;100.00;101830.59;5266933;28;20024;-79
2023/09/27 01:59:43;;;;;;;11.93;4.93;;;;;;;15.51;100.00;101838.66;5274469;28;20021;-79
2023/09/27 02:02:15;;;;;;;9.00;5.83;;;;;;;15.57;100.00;101835.59;5267667;28;20467;-78
2023/09/27 02:04:46;;;;;;;7.07;5.73;;;;;;;15.39;100.00;101833.22;5276018;28;20484;-79
2023/09/27 02:07:17;;;;;;;9.53;5.20;;;;;;;15.66;100.00;101848.19;5273672;28;20047;-79
2023/09/27 02:09:49;;;;;;;7.30;5.47;;;;;;;15.63;100.00;101861.59;5272911;28;20828;-79
2023/09/27 02:12:20;;;;;;;10.87;5.17;;;;;;;15.33;100.00;101825.69;5273535;28;20047;-78
2023/09/27 02:14:52;;;;;;;7.53;4.90;;;;;;;15.26;100.00;101803.28;5273606;28;20498;-80
2023/09/27 02:17:23;;;;;;;8.10;5.73;;;;;;;15.35;100.00;101813.25;5274745;28;20115;-80
2023/09/27 02:19:56;;;;;;;7.73;6.03;;;;;;;15.36;100.00;101821.06;5272636;28;20710;-80
2023/09/27 02:22:27;;;;;;;10.10;5.37;;;;;;;15.13;100.00;101825.19;5273232;28;20619;-80
2023/09/27 02:24:58;;;;;;;8.43;5.10;;;;;;;15.10;100.00;101798.97;5272882;28;20021;-79
2023/09/27 02:27:32;;;;;;;7.00;5.53;;;;;;;15.33;100.00;101826.53;5273801;28;20685;-77
2023/09/27 02:30:06;;;;;;;7.33;5.33;;;;;;;15.28;100.00;101823.34;5272452;28;20556;-77
2023/09/27 02:32:38;;;;;;;;;;;;;;;16.09;100.00;101860.38;5256267;28;20491;-79
2023/09/27 02:35:11;;;;;;;8.80;5.60;;;;;;;15.46;100.00;101862.72;5273362;28;19916;-79
2023/09/27 02:37:45;;;;;;;8.20;5.77;;;;;;;15.20;100.00;101839.66;5273352;28;20046;-78
2023/09/27 02:40:17;;;;;;;10.30;5.70;;;;;;;15.29;100.00;101835.59;5254466;28;20021;-79
2023/09/27 02:42:48;;;;;;;8.07;5.23;;;;;;;15.56;100.00;101852.38;5273118;28;20040;-79
2023/09/27 02:45:20;;;;;;;6.27;5.13;;;;;;;15.14;100.00;101826.03;5272971;28;20460;-76
2023/09/27 02:47:51;;;;;;;9.77;6.07;;;;;;;15.35;100.00;101840.50;5272849;28;20028;-76
2023/09/27 02:50:23;;;;;;;6.83;5.37;;;;;;;15.16;100.00;101822.34;5255492;28;20013;-78
2023/09/27 02:52:54;;;;;;;7.20;5.70;;;;;;;15.17;100.00;101826.69;5271934;28;20379;-78
2023/09/27 02:55:32;;;;;;;9.07;5.77;;;;;;;15.19;100.00;101837.97;5271619;28;20024;-78
2023/09/27 02:58:05;;;;;;;7.83;5.43;;;;;;;15.34;100.00;101845.88;5254268;28;20500;-78
2023/09/27 03:00:36;;;;;;;6.90;5.33;;;;;;;15.21;100.00;101822.06;5272219;28;20021;-76
2023/09/27 03:03:13;;;;;;;7.00;5.30;;;;;;;15.04;100.00;101825.78;5272564;28;20425;-77
2023/09/27 03:05:44;;;;;;;7.73;5.93;;;;;;;14.97;100.00;101815.63;5265152;28;20036;-78
2023/09/27 03:08:16;;;;;;;10.90;5.60;;;;;;;15.09;100.00;101831.59;5269086;28;20035;-78
2023/09/27 03:10:48;;;;;;;9.20;6.00;;;;;;;15.00;100.00;101825.13;5271790;28;20028;-78
2023/09/27 03:13:20;;;;;;;9.53;6.03;;;;;;;15.07;100.00;101830.84;5274454;28;20028;-78
2023/09/27 03:15:58;;;;;;;8.27;5.57;;;;;;;15.06;100.00;101845.00;5258275;28;20032;-78
2023/09/27 03:18:33;;;;;;;7.47;5.80;;;;;;;14.82;100.00;101837.69;5269302;28;20033;-78
2023/09/27 03:21:05;;;;;;;6.57;5.57;;;;;;;15.01;100.00;101837.34;5258030;28;20071;-78
2023/09/27 03:23:36;;;;;;;11.17;6.10;;;;;;;15.03;100.00;101853.09;5275194;28;20029;-77
2023/09/27 03:26:08;;;;;;;9.00;6.47;;;;;;;14.97;100.00;101854.34;5274191;28;20036;-78
2023/09/27 03:28:40;;;;;;;7.57;5.63;;;;;;;15.12;100.00;101863.06;5274826;28;20024;-76
2023/09/27 03:31:11;;;;;;;9.93;5.80;;;;;;;15.06;100.00;101876.66;5275542;28;20029;-75
2023/09/27 03:33:44;;;;;;;10.17;5.93;;;;;;;14.91;100.00;101857.34;5275239;28;20089;-79
2023/09/27 03:36:15;;;;;;;6.50;5.90;;;;;;;14.96;100.00;101839.44;5275140;28;20119;-78
2023/09/27 03:38:47;;;;;;;7.37;6.10;;;;;;;14.92;100.00;101856.41;5262448;28;20032;-78
2023/09/27 03:41:18;;;;;;;6.80;5.70;;;;;;;14.97;100.00;101873.66;5274583;28;20039;-78
2023/09/27 03:43:50;;;;;;;10.30;6.57;;;;;;;15.00;100.00;101893.69;5263362;28;20032;-75
2023/09/27 03:46:22;;;;;;;8.40;5.57;;;;;;;14.85;100.00;101877.03;5273792;28;20028;-77
2023/09/27 03:48:53;;;;;;;7.13;5.63;;;;;;;14.71;100.00;101847.06;5275177;28;20028;-77
2023/09/27 03:51:25;;;;;;;6.73;5.60;;;;;;;14.88;100.00;101858.38;5260991;28;20027;-78
2023/09/27 03:53:56;;;;;;;7.93;6.03;;;;;;;14.92;100.00;101845.84;5274963;28;20090;-78
2023/09/27 03:56:28;;;;;;;9.47;5.50;;;;;;;14.88;100.00;101858.38;5257552;28;20024;-77
2023/09/27 03:58:59;;;;;;;7.73;5.90;;;;;;;14.68;100.00;101831.41;5275408;28;20028;-78
2023/09/27 04:01:31;;;;;;;9.43;6.03;;;;;;;14.87;100.00;101861.97;5275146;28;20150;-78
2023/09/27 04:04:04;;;;;;;7.77;5.87;;;;;;;14.73;100.00;101850.44;5266019;28;20032;-78
2023/09/27 04:06:36;;;;;;;7.32;6.38;;;;;;;14.76;100.00;101870.50;5271819;28;20028;-78
2023/09/27 04:09:08;;;;;;;8.47;6.03;;;;;;;14.62;100.00;101856.41;5274456;28;20036;-78
2023/09/27 04:11:40;;;;;;;8.60;5.67;;;;;;;14.72;100.00;101901.50;5275827;28;20025;-77
2023/09/27 04:14:11;;;;;;;9.60;6.17;;;;;;;14.65;100.00;101897.53;5269510;28;20035;-78
2023/09/27 04:16:42;;;;;;;7.80;5.47;;;;;;;14.75;100.00;101903.06;5269969;28;20029;-77
2023/09/27 04:19:14;;;;;;;9.77;5.43;;;;;;;14.58;100.00;101859.28;5274933;28;20059;-78
2023/09/27 04:21:45;;;;;;;8.43;6.07;;;;;;;14.50;100.00;101860.59;5275209;28;20488;-77
2023/09/27 04:24:16;;;;;;;9.13;6.67;;;;;;;14.49;100.00;101874.72;5273705;28;20028;-77
2023/09/27 04:26:48;;;;;;;8.90;5.87;;;;;;;14.62;100.00;101900.34;5274406;28;20088;-77
2023/09/27 04:29:20;;;;;;;11.83;6.10;;;;;;;14.86;100.00;101910.38;5274947;28;20012;-78
2023/09/27 04:31:53;;;;;;;11.87;6.47;;;;;;;14.33;100.00;101884.50;5256565;28;20036;-78
2023/09/27 04:34:24;;;;;;;8.87;5.73;;;;;;;14.45;100.00;101886.38;5284198;28;20095;-77
2023/09/27 04:36:56;;;;;;;9.90;6.00;;;;;;;14.43;100.00;101867.19;5274892;28;20023;-78
2023/09/27 04:39:31;;;;;;;10.80;6.30;;;;;;;14.61;100.00;101888.09;5274015;28;20078;-78
2023/09/27 04:42:02;;;;;;;6.63;5.93;;;;;;;14.41;100.00;101908.59;5274637;28;20020;-79
2023/09/27 04:44:33;;;;;;;11.90;6.70;;;;;;;14.55;100.00;101899.88;5274144;28;20464;-78
2023/09/27 04:47:05;;;;;;;10.07;6.77;;;;;;;14.52;100.00;101900.91;5264796;28;20028;-77
2023/09/27 04:49:36;;;;;;;9.30;5.57;;;;;;;14.46;100.00;101872.28;5273371;28;20101;-78
2023/09/27 04:52:08;;;;;;;7.83;5.97;;;;;;;14.17;100.00;101838.00;5282893;28;20031;-77
2023/09/27 04:54:39;;;;;;;8.57;5.93;;;;;;;14.38;100.00;101850.81;5262847;28;20020;-79
2023/09/27 04:57:11;;;;;;;7.63;5.20;;;;;;;14.64;100.00;101899.31;5286837;28;20123;-80
2023/09/27 04:59:42;;;;;;;6.83;5.87;;;;;;;14.36;100.00;101886.94;5283810;28;20021;-79
2023/09/27 05:02:13;;;;;;;10.47;7.20;;;;;;;14.17;100.00;101874.00;5271230;28;20028;-78
2023/09/27 05:04:50;;;;;;;7.50;5.83;;;;;;;14.24;100.00;101889.34;5283859;28;20028;-79
2023/09/27 05:07:21;;;;;;;11.47;6.40;;;;;;;14.09;100.00;101856.88;5299813;28;20425;-79
2023/09/27 05:09:52;;;;;;;9.60;6.00;;;;;;;14.01;100.00;101841.53;5288687;28;20056;-77
2023/09/27 05:12:24;;;;;;;10.13;6.20;;;;;;;14.34;100.00;101873.00;5286990;28;20061;-78
2023/09/27 05:14:58;;;;;;;11.23;6.43;;;;;;;14.07;100.00;101836.84;5246514;28;20021;-78
2023/09/27 05:17:29;;;;;;;9.80;6.67;;;;;;;14.38;100.00;101862.19;5275204;28;20025;-78
2023/09/27 05:20:01;;;;;;;9.17;6.20;;;;;;;14.19;100.00;101849.25;5274702;28;20017;-78
2023/09/27 05:22:33;;;;;;;8.83;6.10;;;;;;;14.55;100.00;101888.47;5273478;28;20103;-78
2023/09/27 05:25:08;;;;;;;9.97;6.03;;;;;;;14.21;100.00;101844.75;5273280;28;20028;-81
2023/09/27 05:27:40;;;;;;;10.77;6.43;;;;;;;14.30;100.00;101858.31;5273538;28;20032;-79
2023/09/27 05:30:13;;;;;;;10.50;6.73;;;;;;;14.14;100.00;101851.31;5254237;28;20051;-80
2023/09/27 05:32:44;;;;;;;7.60;6.10;;;;;;;14.38;100.00;101877.16;5248508;28;20019;-80
2023/09/27 05:35:16;;;;;;;8.80;6.30;;;;;;;14.50;100.00;101881.69;5268581;28;20024;-80
2023/09/27 05:37:49;;;;;;;8.93;6.43;;;;;;;14.13;100.00;101832.06;5254395;28;20032;-81
2023/09/27 05:40:20;;;;;;;11.93;6.23;;;;;;;14.21;100.00;101857.94;5271458;28;20027;-79
2023/09/27 05:42:51;;;;;;;10.27;6.30;;;;;;;14.18;100.00;101855.47;5276050;28;20016;-78
2023/09/27 05:45:23;;;;;;;9.70;5.67;;;;;;;14.18;100.00;101854.63;5273391;28;20027;-79
2023/09/27 05:47:54;;;;;;;11.10;6.23;;;;;;;14.34;100.00;101879.13;5273269;28;20028;-79
2023/09/27 05:50:26;;;;;;;7.33;5.90;;;;;;;14.11;100.00;101839.19;5254089;28;20060;-78
2023/09/27 05:52:59;;;;;;;7.00;6.30;;;;;;;14.18;100.00;101842.31;5271838;28;20024;-79
2023/09/27 05:55:30;;;;;;;9.53;6.73;;;;;;;13.98;100.00;101822.44;5272783;28;20032;-79
2023/09/27 05:58:02;;;;;;;8.47;5.63;;;;;;;14.22;100.00;101843.84;5254766;28;20053;-79
2023/09/27 06:00:46;;;;;;;9.30;6.20;;;;;;;14.31;100.00;101855.63;5272175;28;20023;-76
2023/09/27 06:03:17;;;;;;;9.73;5.93;;;;;;;14.14;100.00;101846.06;5251383;28;20028;-77
2023/09/27 06:05:49;;;;;;;9.27;6.13;;;;;;;14.40;100.00;101870.00;5270839;28;20027;-77
2023/09/27 06:08:20;;;;;;;7.53;6.30;;;;;;;14.12;100.00;101842.69;5265448;28;20028;-80
2023/09/27 06:10:51;;;;;;;9.30;5.77;;;;;;;14.18;100.00;101867.78;5259443;28;20032;-79
2023/09/27 06:13:24;;;;;;;8.90;6.20;;;;;;;14.19;100.00;101836.09;5263613;28;20103;-80
2023/09/27 06:15:55;;;;;;;8.33;6.70;;;;;;;14.25;100.00;101830.47;5259378;28;20048;-78
2023/09/27 06:18:26;;;;;;;9.37;6.30;;;;;;;14.17;100.00;101827.44;5249942;28;20070;-79
2023/09/27 06:20:58;;;;;;;7.90;6.20;;;;;;;14.43;100.00;101868.97;5266291;28;20591;-79
2023/09/27 06:23:29;;;;;;;9.03;6.43;;;;;;;14.43;100.00;101858.44;5270466;28;20040;-80
2023/09/27 06:26:01;;;;;;;9.93;6.47;;;;;;;14.41;100.00;101850.63;5252609;28;20036;-80
2023/09/27 06:28:33;;;;;;;8.53;6.17;;;;;;;14.40;100.00;101835.75;5247451;28;20120;-78
2023/09/27 06:31:06;;;;;;;12.30;8.07;;;;;;;14.72;100.00;101848.75;5272271;28;20066;-77
2023/09/27 06:33:40;;;;;;;12.30;7.53;;;;;;;14.52;100.00;101816.53;5265815;28;20419;-79
2023/09/27 06:36:11;;;;;;;;;;;;;;;15.22;100.00;101842.25;5272731;28;20021;-77
2023/09/27 06:38:43;;;;;;;10.40;8.00;;;;;;;14.81;100.00;101830.69;5261156;28;20404;-77
2023/09/27 06:41:15;;;;;;;10.17;7.23;;;;;;;14.78;100.00;101822.94;5234557;28;20025;-79
2023/09/27 06:43:48;;;;;;;9.73;7.50;;;;;;;14.98;100.00;101833.13;5265658;28;20028;-78
2023/09/27 06:46:21;;;;;;;12.00;7.83;;;;;;;15.04;100.00;101847.72;5270571;28;20032;-79
2023/09/27 06:48:56;;;;;;;9.60;7.67;;;;;;;15.16;100.00;101846.09;5273148;28;20074;-75
2023/09/27 06:51:27;;;;;;;10.17;7.63;;;;;;;15.13;100.00;101838.38;5257500;28;20635;-74
2023/09/27 06:53:59;;;;;;;9.47;7.17;;;;;;;15.28;100.00;101844.47;5272602;28;20021;-79
2023/09/27 06:56:30;;;;;;;15.03;7.73;;;;;;;15.39;100.00;101877.25;5275181;28;20038;-79
2023/09/27 06:59:02;;;;;;;9.67;6.43;;;;;;;15.32;100.00;101840.69;5275275;28;20453;-81
2023/09/27 07:01:36;;;;;;;11.53;7.53;;;;;;;15.55;100.00;101856.81;5274814;28;20024;-80
2023/09/27 07:04:08;;;;;;;;;;;;;;;15.93;100.00;101865.81;5275137;28;20355;-80
2023/09/27 07:06:39;;;;;;;9.00;6.90;;;;;;;15.42;100.00;101830.38;5275590;28;19912;-80
2023/09/27 07:09:16;;;;;;;11.60;8.03;;;;;;;15.52;100.00;101843.81;5246874;28;20066;-76
2023/09/27 07:11:48;;;;;;;10.73;7.00;;;;;;;15.65;100.00;101853.59;5254031;28;20029;-76
2023/09/27 07:14:20;;;;;;;11.20;8.03;;;;;;;15.56;100.00;101831.25;5249574;28;20143;-77
2023/09/27 07:16:51;;;;;;;12.20;7.53;;;;;;;15.65;100.00;101861.50;5235238;28;20031;-77
2023/09/27 07:19:23;;;;;;;9.93;6.73;;;;;;;15.76;100.00;101861.63;5254120;28;20485;-78
2023/09/27 07:21:54;;;;;;;11.83;7.90;;;;;;;15.69;100.00;101863.00;5252893;28;20550;-77
2023/09/27 07:24:29;;;;;;;10.00;7.30;;;;;;;15.73;100.00;101865.34;5251532;28;20056;-77
2023/09/27 07:27:01;;;;;;;9.67;7.00;;;;;;;15.77;100.00;101876.56;5234583;28;20086;-77
2023/09/27 07:29:33;;;;;;;10.47;7.13;;;;;;;15.58;100.00;101839.94;5251936;28;20017;-77
2023/09/27 07:32:05;;;;;;;11.20;8.17;;;;;;;15.75;100.00;101859.94;5254414;28;20108;-75
2023/09/27 07:34:37;;;;;;;11.53;7.80;;;;;;;15.67;100.00;101841.13;5254857;28;20107;-77
2023/09/27 07:37:09;;;;;;;12.03;7.50;;;;;;;15.76;100.00;101823.84;5252130;28;20060;-77
2023/09/27 07:39:41;;;;;;;10.77;7.47;;;;;;;16.13;100.00;101879.50;5254180;28;20097;-77
2023/09/27 07:43:22;;;;;;;9.70;7.27;;;;;;;16.50;100.00;101867.38;5251562;28;20090;-78
2023/09/27 07:46:06;;;;;;;9.90;8.13;;;;;;;15.93;100.00;101818.28;5252214;28;20738;-78
2023/09/27 07:48:40;;;;;;;14.30;7.70;;;;;;;16.21;100.00;101823.50;5234589;28;20029;-79
2023/09/27 07:51:19;;;;;;;;;;;;;;;16.92;100.00;101853.91;5235118;28;20013;-78
2023/09/27 07:53:55;;;;;;;11.17;8.17;;;;;;;16.27;100.00;101809.00;5265544;28;19909;-78
2023/09/27 07:56:29;;;;;;;17.13;8.10;;;;;;;16.59;100.00;101872.03;5236239;28;20380;-78
2023/09/27 07:59:12;;;;;;;16.08;8.10;;;;;;;16.61;100.00;101848.97;5232179;28;20032;-78
2023/09/27 08:01:54;;;;;;;12.55;7.63;;;;;;;16.78;100.00;101845.16;5223569;28;20025;-78
2023/09/27 08:04:33;;;;;;;11.90;8.27;;;;;;;17.09;100.00;101844.75;5236860;28;20028;-78
2023/09/27 08:07:07;;;;;;;12.13;8.90;;;;;;;17.23;100.00;101853.50;5253152;28;20024;-77
2023/09/27 08:09:39;;;;;;;12.20;8.52;;;;;;;17.51;100.00;101846.22;5248588;28;20036;-78
2023/09/27 08:12:20;;;;;;;13.87;8.43;;;;;;;18.14;100.00;101840.69;5242395;28;20039;-78
2023/09/27 08:14:55;;;;;;;14.17;8.40;;;;;;;18.36;100.00;101823.09;5252545;28;20082;-78
2023/09/27 08:17:26;;;;;;;12.97;9.70;;;;;;;18.70;100.00;101830.22;5274679;28;20039;-78
2023/09/27 08:20:05;;;;;;;17.93;10.20;;;;;;;19.87;100.00;101873.16;5256180;28;20028;-78
2023/09/27 08:23:02;;;;;;;;;;;;;;;;;;;;;
2023/09/27 08:26:25;;;;;;;15.03;10.20;;;;;;;21.38;100.00;101888.69;5273310;28;20073;-78
2023/09/27 08:29:09;;;;;;;13.80;8.27;;;;;;;21.82;100.00;101863.47;5254152;28;20115;-78
2023/09/27 08:31:53;;;;;;;;;;;;;;;23.51;100.00;101895.69;5248767;28;20027;-78
2023/09/27 08:34:39;;;;;;;10.63;6.97;;;;;;;22.79;100.00;101862.53;5264280;28;19964;-79
2023/09/27 08:37:13;;;;;;;10.18;6.80;;;;;;;23.03;100.00;101844.25;5252896;28;20021;-78
2023/09/27 08:39:45;;;;;;;9.68;6.93;;;;;;;24.28;100.00;101853.31;5254059;28;20399;-78
2023/09/27 08:42:20;;;;;;;9.80;6.78;;;;;;;25.23;100.00;101885.50;5253732;28;20028;-79
2023/09/27 08:44:55;;;;;;;8.27;6.45;;;;;;;26.03;99.24;101893.94;5270510;28;20025;-79
2023/09/27 08:47:33;;;;;;;9.10;6.90;;;;;;;25.07;90.04;101851.44;5252294;28;20027;-79
2023/09/27 08:50:08;;;;;;;8.90;5.93;;;;;;;25.64;87.08;101851.69;5269520;28;20210;-78
2023/09/27 08:53:18;;;;;;;;;;;;;;;;;;;;;
2023/09/27 08:55:53;;;;;;;7.93;5.38;;;;;;;26.32;81.40;101854.09;5269880;28;20058;-78
2023/09/27 08:58:58;;;;;;;8.50;5.60;;;;;;;27.35;75.16;101892.75;5252285;28;20132;-78
2023/09/27 09:01:41;;;;;;;10.25;5.78;;;;;;;28.31;69.94;101852.88;5269860;28;20029;-78
2023/09/27 09:04:19;;;;;;;9.27;5.15;;;;;;;28.52;62.25;101873.69;5253820;28;20032;-78
2023/09/27 09:07:22;;;;;;;6.43;4.88;;;;;;;29.51;63.20;101883.25;5270606;28;20029;-78
2023/09/27 09:14:07;;;;;;;;;;;;;;;;;;;;;
2023/09/27 09:17:19;;;;;;;17.48;5.95;;;;;;;26.16;77.43;101823.63;5271242;28;20475;-79
2023/09/27 09:20:21;;;;;;;10.40;6.03;;;;;;;26.06;78.53;101872.09;5241806;28;20097;-77
2023/09/27 09:23:17;;;;;;;7.43;5.40;;;;;;;24.87;84.67;101841.81;5241589;28;20031;-77
2023/09/27 09:26:21;;;;;;;9.77;5.97;;;;;;;24.03;86.59;101834.41;5251331;28;20510;-78
2023/09/27 09:29:56;;;;;;;10.27;6.10;;;;;;;24.41;88.76;101837.66;5251292;28;20021;-78
2023/09/27 09:32:52;;;;;;;9.57;6.22;;;;;;;24.15;88.49;101843.88;5244540;28;20391;-77
2023/09/27 09:36:04;;;;;;;12.68;6.47;;;;;;;24.45;87.43;101872.16;5253520;28;20535;-78
2023/09/27 09:42:14;;;;;;;9.35;7.25;;;;;;;22.87;100.00;101821.72;5267827;28;20032;-78
2023/09/27 09:44:59;;;;;;;15.82;7.18;;;;;;;23.75;99.98;101822.03;5233239;28;20061;-79
2023/09/27 09:47:41;;;;;;;10.13;7.15;;;;;;;23.64;94.28;101799.06;5232576;28;20041;-78
2023/09/27 10:19:38;;;;;;;10.13;6.55;;;;;;;26.69;71.72;101784.63;5085594;29;20040;-78
2023/09/27 10:25:23;;;;;;;9.73;6.45;;;;;;;27.00;66.59;101844.75;5057376;29;19911;-76
2023/09/27 10:28:04;;;;;;;13.55;7.22;;;;;;;26.24;72.93;101827.25;5157653;28;20424;-76
2023/09/27 10:30:48;;;;;;;9.90;6.20;;;;;;;26.04;72.63;101817.75;5221137;28;20120;-77
2023/09/27 10:33:32;;;;;;;14.00;7.18;;;;;;;25.28;70.55;101799.22;5213911;28;20085;-79
2023/09/27 10:36:16;;;;;;;10.68;6.85;;;;;;;25.25;79.13;101800.41;5226462;28;20091;-77
2023/09/27 10:38:50;;;;;;;12.88;5.57;;;;;;;25.22;79.53;101800.72;5227769;28;20521;-77
2023/09/27 10:41:34;;;;;;;;;;;;;;;26.25;73.16;101800.25;5214077;28;20101;-76
2023/09/27 10:44:06;;;;;;;10.90;6.63;;;;;;;24.81;78.91;101763.97;5236340;28;19916;-77
2023/09/27 10:46:53;;;;;;;8.30;6.72;;;;;;;25.34;77.04;101794.00;5232605;28;20047;-77
2023/09/27 10:49:33;;;;;;;9.50;5.90;;;;;;;25.11;77.31;101750.97;5247333;28;20154;-77
2023/09/27 10:52:15;;;;;;;7.53;5.85;;;;;;;25.21;80.08;101732.88;5259630;28;20025;-77
2023/09/27 10:54:52;;;;;;;8.57;5.55;;;;;;;25.13;78.48;101755.16;5239160;28;20174;-77
2023/09/27 10:57:23;;;;;;;8.82;6.05;;;;;;;25.33;74.13;101728.00;5239473;28;20479;-77
2023/09/27 11:00:33;;;;;;;13.00;5.45;;;;;;;25.23;78.15;101743.44;5244617;28;20025;-76
2023/09/27 11:07:05;;;;;;;8.88;6.03;;;;;;;25.15;74.77;101716.63;5264632;28;20515;-77
2023/09/27 11:09:46;;;;;;;8.80;5.63;;;;;;;25.29;70.94;101709.75;5252144;28;20021;-78
2023/09/27 11:12:37;;;;;;;9.73;5.50;;;;;;;24.97;77.31;101725.69;5249289;28;20113;-77
2023/09/27 11:15:29;;;;;;;7.43;5.47;;;;;;;24.96;71.27;101718.66;5252260;28;20058;-77
2023/09/27 11:18:01;;;;;;;11.35;5.55;;;;;;;24.93;70.86;101705.56;5254431;28;20036;-77
2023/09/27 11:20:41;;;;;;;7.43;5.05;;;;;;;25.09;73.83;101715.47;5255976;28;20021;-77
2023/09/27 11:23:14;;;;;;;7.32;4.63;;;;;;;24.56;75.15;101718.41;5254858;28;20487;-77
2023/09/27 11:25:46;;;;;;;7.60;4.57;;;;;;;24.73;80.84;101712.06;5252026;28;20462;-77
2023/09/27 11:28:20;;;;;;;9.05;5.15;;;;;;;25.03;70.96;101700.06;5273412;28;20044;-77
2023/09/27 11:30:56;;;;;;;8.05;5.00;;;;;;;24.96;75.86;101711.44;5269987;28;20017;-77
2023/09/27 11:33:33;;;;;;;9.52;5.00;;;;;;;24.99;73.66;101704.91;5256127;28;20016;-77
2023/09/27 11:46:43;;;;;;;6.22;4.32;;;;;;;24.62;64.43;101646.28;5265046;28;20024;-76
2023/09/27 11:58:48;;;;;;;9.70;4.82;;;;;;;25.17;62.35;101671.75;5295013;28;20390;-67
2023/09/27 12:01:20;;;;;;;6.43;5.15;;;;;;;25.26;63.33;101662.66;5285127;28;20028;-67
2023/09/27 12:03:52;;;;;;;8.75;4.30;;;;;;;25.22;62.13;101656.00;5293112;28;20028;-65
2023/09/27 12:06:25;;;;;;;8.93;4.80;;;;;;;25.47;60.50;101653.25;5301864;28;20028;-66
2023/09/27 12:08:56;;;;;;;9.20;4.57;;;;;;;25.45;62.75;101649.91;5286115;28;20017;-66
2023/09/27 12:11:28;;;;;;;7.00;4.55;;;;;;;25.72;59.06;101646.00;5298434;28;20023;-67
2023/09/27 12:13:59;;;;;;;7.75;5.13;;;;;;;25.59;58.75;101646.50;5293238;28;20109;-67
2023/09/27 12:16:30;;;;;;;9.30;5.72;;;;;;;25.64;58.20;101637.13;5288827;28;20139;-67
2023/09/27 12:19:03;;;;;;;9.52;4.88;;;;;;;25.37;60.02;101638.22;5281707;28;20263;-66
2023/09/27 12:21:35;;;;;;;6.65;5.18;;;;;;;25.33;58.96;101631.50;5308254;28;20024;-66
2023/09/27 12:24:07;;;;;;;7.45;4.35;;;;;;;25.50;61.04;101626.09;5305150;28;20926;-67
2023/09/27 12:26:39;;;;;;;9.38;5.55;;;;;;;25.45;59.93;101631.97;5305480;28;20012;-67
2023/09/27 12:29:10;;;;;;;9.57;4.28;;;;;;;25.48;57.67;101628.13;5294578;28;20066;-65
2023/09/27 12:31:41;;;;;;;5.90;4.35;;;;;;;25.69;58.38;101634.78;5294622;28;20434;-65
2023/09/27 12:34:13;;;;;;;8.60;5.50;;;;;;;25.64;59.89;101632.59;5301224;28;20047;-65
2023/09/27 12:36:44;;;;;;;13.13;5.25;;;;;;;25.65;59.96;101636.13;5299823;28;20016;-66
2023/09/27 12:39:16;;;;;;;8.80;4.65;;;;;;;25.58;58.28;101628.75;5291635;28;20013;-65
2023/09/27 12:41:48;;;;;;;6.40;4.95;;;;;;;25.50;58.87;101618.06;5297035;28;20471;-66
2023/09/27 12:44:19;;;;;;;7.28;4.90;;;;;;;25.66;60.03;101629.78;5289790;28;20034;-66
2023/09/27 12:46:50;;;;;;;8.68;5.07;;;;;;;25.60;58.91;101617.84;5278287;28;20135;-67
2023/09/27 12:49:25;;;;;;;11.63;5.22;;;;;;;25.57;60.76;101610.97;5290815;28;20080;-66
2023/09/27 12:51:56;;;;;;;9.85;5.63;;;;;;;25.32;63.16;101612.91;5262987;28;20059;-66
2023/09/27 12:54:27;;;;;;;10.55;5.82;;;;;;;25.33;62.67;101615.41;5295132;28;20102;-68
2023/09/27 12:56:59;;;;;;;6.70;4.20;;;;;;;25.46;61.16;101606.84;5292492;28;20556;-66
2023/09/27 12:59:31;;;;;;;4.25;2.95;;;;;;;25.44;62.00;101606.19;5282170;28;20823;-66
2023/09/27 13:02:03;;;;;;;12.13;4.13;;;;;;;25.29;65.81;101603.34;5295654;28;20120;-66